Pagrindinis puslapis
METAR-TAF:

METAR-TAF

Oro uostai :

Ha'il, Saudo Arabija

platuma: 27-26N, ilguma: 041-41E, Aukštis: 1015 m

Dabartinis oras

Ataskaita buvo paskelbta 56 minutes, ne 08:00 UTC
Vėjas 8 kt iš Pietų
Temperatūra 31°C
Drėgmė 16%
Slėgis 1016 hPa
Matomumas 10 km arba daugiau
nėra debesų žemiau 1500 m ir nėra kamuolinių lietaus debesų

METAR: OEHL 020800Z 18008KT CAVOK 31/02 Q1016

Laikas: 11:56 (08:56 UTC)

Prognozė

Ataskaita buvo paskelbta 9 valandos ir 56 minutes, ne 23:00 UTC
Prognozė galioja nuo 02 metu 00 UTC su 03 metu 06 UTC
Vėjas 5 kt iš Šiaurės/Šiaurės Rytų
Matomumas 10 km arba daugiau
nėra debesų žemiau 1500 m ir nėra kamuolinių lietaus debesų
Tapsmas
nuo 02 metu 06 UTC su 02 metu 08 UTC
Vėjas 12 kt iš Pietų
Tapsmas
nuo 02 metu 18 UTC su 02 metu 20 UTC
Vėjas 5 kt iš Šiaurės/Šiaurės Vakarų

TAF: OEHL 012300Z 0200/0306 02005KT CAVOK BECMG 0206/0208 18012KT BECMG 0218/0220 34005KT

Orai ataskaitas ir orų prognozės (METAR, TAF).

turimą stotys yra geltonos ir raudonos taškus žemėlapyje.

Perkelti pele per norėdami pamatyti stoties vardą.

Tada spustelėkite, norėdami matyti oro stebėjimo ir prognozės.

Norėdami pakeisti žemėlapį: spustelėkite ant žalios mygtukų su juodo kryžiaus žemyn,; žalią mygtuką su brūkšneliu, jei norite nutolinti; arba žalių rodyklių gretimoms žemėlapius.


METAR-TAF: